Airfield :
LOGIN :

Register | Disclaimer

   EN    FR    IT 

 










Legend :    VFR   Marginal VFR   IFR   Intensive IFR   Very Intensive IFR
Visi :
Ceiling :
>= 8 km
>= 3000ft
5 to 8 km
1000 to 3000 ft
1500m to 5 km
500 to 1000 ft
800 to 1500m
200 to 500 ft
< 800m
< 200 ft
Symbols :   Thunderstorms  Fog  Heavy snow  Heavy precipitations  Wind > 20 kt
SIGMETs :     Misc.  Thunderstorms  Icing  Turbulence  Mountain Waves  Volcanic Ashes






- Airport Elevation : 408 ft
- IATA code : FKB


EDSB - Karlsruhe Baden Baden

CURRENT METAR :
  • 280420Z 01006KT 1100 R21/1500U BR BKN001 OVC004 00/M00 Q1019

EXPIRED METARs :
  • 280350Z AUTO 01006KT 1000 0800 R21/1300U BKN001/// OVC004/// 00/M00 Q1019
  • 280320Z AUTO 03005KT 3100 OVC002/// 01/00 Q1019
  • 280250Z AUTO 03006KT 2800 OVC002/// 01/01 Q1019
  • 280220Z AUTO 04005KT 360V070 3400 BKN002/// OVC004/// 01/01 Q1019
  • 280150Z AUTO 03004KT 350V080 1400 1000 R21/1900N SCT002/// OVC004/// 02/01 Q1020

TAF TAF EDSB
Valid from the 28 at 00:00 until the 29 at 00:00 UTC


272300Z 2800/2824 01004KT 0500 FG OVC001
TEMPO 2800/2809 1200 BR BKN002
BECMG 2810/2812 3500 BR
BECMG 2812/2814 03010KT 6000 SCT005



MET'MAP, your aeronautical weather chart ! - Copyright ORBIFLY December 2007 - Disclaimer

ORBIFLY MET'MAP TEAM :

Programming & Development : Alexandra Zaïnal
Concept & original design : Baudouin d'Aumeries
Assistance for programming : Marc-Olivier Méhu
Technical & hardware support : Manuel Goepfert

Contact : metmap@orbifly.com




SOURCES & CREDITS :

   NOAA